Time;durP1;ratioP1;P1;durP2;ratioP2;P2;SDS_P1;SDS_P2;PMS_P1;PMS_P2;Temp;Humidity;BMP_temperature;BMP_pressure;BME280_temperature;BME280_humidity;BME280_pressure;Samples;Min_cycle;Max_cycle;Signal;HPM_P1;HPM_P2
2024/01/05 00:01:36;;;;;;;10.60;1.75;;;;;;;3.40;100.00;96202.94;4977151;28;20038;-62
2024/01/05 00:04:03;;;;;;;7.35;1.92;;;;;;;3.39;100.00;96198.63;4982904;28;20564;-63
2024/01/05 00:06:30;;;;;;;4.72;1.67;;;;;;;3.29;100.00;96201.91;4982829;28;20577;-62
2024/01/05 00:08:56;;;;;;;6.95;1.63;;;;;;;3.19;100.00;96196.31;4982032;28;20096;-63
2024/01/05 00:11:23;;;;;;;5.72;1.77;;;;;;;3.05;100.00;96193.06;4984305;28;20038;-62
2024/01/05 00:13:49;;;;;;;6.95;1.90;;;;;;;3.01;100.00;96200.75;4982757;28;20042;-64
2024/01/05 00:16:21;;;;;;;3.30;1.30;;;;;;;2.98;100.00;96194.00;4980765;28;20313;-63
2024/01/05 00:18:48;;;;;;;6.32;1.90;;;;;;;3.02;100.00;96180.97;4985029;28;20113;-62
2024/01/05 00:21:22;;;;;;;5.60;2.08;;;;;;;3.05;100.00;96180.53;4981827;28;20413;-62
2024/01/05 00:23:51;;;;;;;7.88;2.03;;;;;;;3.11;100.00;96184.13;4984145;28;20402;-62
2024/01/05 00:26:18;;;;;;;3.20;1.50;;;;;;;3.09;100.00;96183.53;4983651;28;20069;-62
2024/01/05 00:28:46;;;;;;;4.78;1.65;;;;;;;3.10;100.00;96185.97;4973869;28;20046;-63
2024/01/05 00:31:14;;;;;;;4.40;1.73;;;;;;;3.04;100.00;96175.41;4982381;28;20034;-62
2024/01/05 00:33:42;;;;;;;6.72;1.90;;;;;;;2.93;100.00;96177.03;4983309;28;20042;-63
2024/01/05 00:36:09;;;;;;;8.27;2.08;;;;;;;2.77;100.00;96191.91;4967657;28;20046;-62
2024/01/05 00:38:36;;;;;;;7.43;2.05;;;;;;;2.78;100.00;96196.19;4960548;28;20334;-62
2024/01/05 00:41:03;;;;;;;3.92;1.35;;;;;;;2.75;100.00;96196.66;4982812;28;20053;-61
2024/01/05 00:43:30;;;;;;;5.43;1.95;;;;;;;2.69;100.00;96190.41;4981670;28;20051;-62
2024/01/05 00:45:57;;;;;;;4.40;1.63;;;;;;;2.77;100.00;96192.72;4976989;28;20038;-62
2024/01/05 00:48:23;;;;;;;4.95;1.27;;;;;;;2.82;100.00;96195.53;4981008;28;20058;-62
2024/01/05 00:50:50;;;;;;;8.18;1.80;;;;;;;3.08;100.00;96184.59;4983500;28;20057;-62
2024/01/05 00:53:17;;;;;;;8.30;1.70;;;;;;;3.26;100.00;96180.97;4979656;28;20034;-63
2024/01/05 00:55:44;;;;;;;5.93;2.00;;;;;;;3.39;100.00;96185.25;4977397;28;20042;-62
2024/01/05 00:58:11;;;;;;;6.65;1.50;;;;;;;3.54;100.00;96186.63;4986222;28;20418;-62
2024/01/05 01:00:37;;;;;;;3.95;1.35;;;;;;;3.69;100.00;96189.59;4986224;28;20042;-63
2024/01/05 01:03:04;;;;;;;5.68;1.52;;;;;;;3.73;100.00;96180.06;4985846;28;20129;-62
2024/01/05 01:05:31;;;;;;;3.88;1.38;;;;;;;3.80;100.00;96182.63;4985933;28;20093;-63
2024/01/05 01:07:57;;;;;;;3.75;1.40;;;;;;;3.78;100.00;96179.34;4985960;28;20038;-63
2024/01/05 01:10:24;;;;;;;5.88;1.92;;;;;;;3.85;100.00;96172.00;4981038;28;20494;-62
2024/01/05 01:12:50;;;;;;;4.47;1.25;;;;;;;3.87;100.00;96172.56;4987974;28;20046;-62
2024/01/05 01:15:17;;;;;;;8.45;1.60;;;;;;;3.87;100.00;96161.84;4984219;28;20042;-65
2024/01/05 01:17:44;;;;;;;5.25;2.20;;;;;;;3.93;100.00;96151.22;4985938;28;20051;-65
2024/01/05 01:20:10;;;;;;;7.30;1.60;;;;;;;3.95;100.00;96147.28;4985799;28;20104;-65
2024/01/05 01:22:37;;;;;;;4.03;1.65;;;;;;;3.98;100.00;96136.06;4986109;28;20040;-65
2024/01/05 01:25:04;;;;;;;4.53;1.60;;;;;;;4.03;100.00;96133.47;4985863;28;20073;-67
2024/01/05 01:27:31;;;;;;;5.07;1.52;;;;;;;4.00;100.00;96143.88;4986534;28;20510;-65
2024/01/05 01:29:58;;;;;;;6.03;1.70;;;;;;;3.98;100.00;96133.38;4985363;28;20050;-66
2024/01/05 01:32:24;;;;;;;4.80;1.45;;;;;;;4.03;100.00;96130.00;4983835;28;20446;-65
2024/01/05 01:34:51;;;;;;;5.20;1.20;;;;;;;4.18;100.00;96129.47;4982885;28;20042;-65
2024/01/05 01:37:17;;;;;;;3.67;1.42;;;;;;;4.24;100.00;96115.09;4985064;28;20121;-65
2024/01/05 01:39:44;;;;;;;6.13;1.55;;;;;;;4.21;100.00;96112.91;4986939;28;20116;-64
2024/01/05 01:42:11;;;;;;;5.43;1.67;;;;;;;4.21;100.00;96096.84;4985696;28;20038;-65
2024/01/05 01:44:37;;;;;;;7.85;1.73;;;;;;;4.15;100.00;96097.78;4985276;28;20039;-65
2024/01/05 01:47:05;;;;;;;5.93;2.03;;;;;;;4.13;100.00;96099.91;4950791;28;20507;-66
2024/01/05 01:49:32;;;;;;;9.55;1.92;;;;;;;4.21;100.00;96096.84;4958353;28;20051;-65
2024/01/05 01:51:58;;;;;;;5.35;1.65;;;;;;;4.27;100.00;96103.06;4985791;28;20057;-65
2024/01/05 01:54:27;;;;;;;4.57;1.38;;;;;;;4.30;100.00;96094.53;4985384;28;20080;-65
2024/01/05 01:56:56;;;;;;;6.47;1.30;;;;;;;4.38;100.00;96093.31;4987723;28;20044;-65
2024/01/05 01:59:23;;;;;;;7.55;1.25;;;;;;;4.43;100.00;96091.53;4984753;28;20502;-65
2024/01/05 02:01:50;;;;;;;6.68;1.33;;;;;;;4.34;100.00;96094.88;4986554;28;20072;-64
2024/01/05 02:04:19;;;;;;;7.53;1.40;;;;;;;4.33;100.00;96093.25;4985956;28;20074;-65
2024/01/05 02:06:46;;;;;;;8.85;1.55;;;;;;;4.27;100.00;96084.31;4984689;28;20490;-65
2024/01/05 02:09:13;;;;;;;6.50;1.33;;;;;;;4.22;100.00;96081.56;4983745;28;20077;-65
2024/01/05 02:11:40;;;;;;;6.50;1.27;;;;;;;4.16;100.00;96070.75;4985863;28;20534;-65
2024/01/05 02:14:07;;;;;;;6.40;2.08;;;;;;;4.14;100.00;96085.44;4987303;28;20423;-65
2024/01/05 02:16:34;;;;;;;5.47;1.35;;;;;;;4.13;100.00;96086.50;4980744;28;20046;-65
2024/01/05 02:19:00;;;;;;;4.00;1.30;;;;;;;4.11;100.00;96088.59;4981100;28;20046;-65
2024/01/05 02:21:30;;;;;;;3.08;1.17;;;;;;;4.11;100.00;96072.53;4986845;28;20249;-65
2024/01/05 02:23:56;;;;;;;6.75;1.45;;;;;;;4.12;100.00;96064.25;4985655;28;20057;-65
2024/01/05 02:26:23;;;;;;;6.50;1.55;;;;;;;4.13;100.00;96060.53;4985615;28;20414;-65
2024/01/05 02:28:50;;;;;;;3.33;1.17;;;;;;;4.12;100.00;96060.75;4985673;28;20057;-65
2024/01/05 02:31:16;;;;;;;6.10;1.10;;;;;;;4.15;100.00;96057.59;4968987;28;20109;-65
2024/01/05 02:33:43;;;;;;;3.50;1.10;;;;;;;4.12;100.00;96063.44;4964535;28;20093;-65
2024/01/05 02:36:10;;;;;;;6.95;1.48;;;;;;;4.09;100.00;96062.06;4988040;28;20045;-65
2024/01/05 02:38:37;;;;;;;4.07;0.88;;;;;;;4.14;100.00;96051.44;4980675;28;20075;-65
2024/01/05 02:41:06;;;;;;;5.50;1.25;;;;;;;4.13;100.00;96062.41;4984766;28;20038;-65
2024/01/05 02:43:32;;;;;;;5.18;1.23;;;;;;;4.15;100.00;96066.47;4982217;28;20423;-65
2024/01/05 02:45:59;;;;;;;4.38;0.98;;;;;;;4.18;100.00;96070.50;4975693;28;20125;-65
2024/01/05 02:48:26;;;;;;;2.35;0.95;;;;;;;4.20;100.00;96068.38;4983831;28;20493;-65
2024/01/05 02:50:53;;;;;;;4.65;1.30;;;;;;;4.23;100.00;96062.56;4988743;28;20535;-65
2024/01/05 02:53:19;;;;;;;7.95;1.23;;;;;;;4.17;100.00;96058.19;4984084;28;20050;-65
2024/01/05 02:55:46;;;;;;;5.38;1.17;;;;;;;4.19;100.00;96048.03;4983730;28;20042;-65
2024/01/05 02:58:12;;;;;;;8.98;1.33;;;;;;;4.18;100.00;96043.72;4986217;28;20045;-65
2024/01/05 03:00:39;;;;;;;2.83;0.80;;;;;;;4.13;100.00;96052.47;4985160;28;20089;-65
2024/01/05 03:03:06;;;;;;;5.65;1.13;;;;;;;4.11;100.00;96038.53;4985996;28;20490;-65
2024/01/05 03:05:33;;;;;;;6.57;1.30;;;;;;;4.10;100.00;96038.78;4984202;28;20058;-65
2024/01/05 03:07:59;;;;;;;1.90;1.20;;;;;;;4.09;100.00;96051.34;4983020;28;20065;-65
2024/01/05 03:10:26;;;;;;;4.35;1.20;;;;;;;4.18;100.00;96032.19;4983228;28;20053;-64
2024/01/05 03:12:52;;;;;;;4.20;1.10;;;;;;;4.26;100.00;96031.78;4983987;28;20042;-65
2024/01/05 03:15:19;;;;;;;3.92;1.10;;;;;;;4.27;100.00;96025.34;4983965;28;20041;-65
2024/01/05 03:17:47;;;;;;;3.38;0.80;;;;;;;4.24;100.00;96017.84;4985577;28;20069;-65
2024/01/05 03:20:17;;;;;;;3.20;1.10;;;;;;;4.23;100.00;96019.69;4981834;28;20045;-64
2024/01/05 03:22:44;;;;;;;6.85;1.17;;;;;;;4.27;100.00;96025.34;4984543;28;20073;-65
2024/01/05 03:25:10;;;;;;;4.20;1.02;;;;;;;4.31;100.00;96023.03;4982855;28;20053;-65
2024/01/05 03:27:37;;;;;;;5.03;1.48;;;;;;;4.37;100.00;96017.50;4982556;28;20428;-65
2024/01/05 03:30:04;;;;;;;5.63;0.98;;;;;;;4.45;100.00;96012.78;4981300;28;20053;-65
2024/01/05 03:32:30;;;;;;;5.28;1.00;;;;;;;4.46;100.00;96003.66;4982354;28;20510;-65
2024/01/05 03:34:57;;;;;;;2.60;0.82;;;;;;;4.49;100.00;95995.94;4983875;28;20042;-65
2024/01/05 03:37:24;;;;;;;4.70;0.90;;;;;;;4.55;100.00;96000.31;4982244;28;20125;-66
2024/01/05 03:39:50;;;;;;;3.63;0.98;;;;;;;4.54;100.00;96000.56;4979307;28;20565;-65
2024/01/05 03:42:17;;;;;;;2.95;1.08;;;;;;;4.50;100.00;95997.56;4983308;28;20049;-65
2024/01/05 03:44:44;;;;;;;2.25;0.68;;;;;;;4.52;100.00;96003.50;4983813;28;20038;-65
2024/01/05 03:47:11;;;;;;;3.10;1.00;;;;;;;4.53;100.00;96006.97;4984871;28;20042;-65
2024/01/05 03:49:37;;;;;;;5.90;1.17;;;;;;;4.48;100.00;96009.59;4983536;28;20126;-65
2024/01/05 03:52:04;;;;;;;4.55;1.15;;;;;;;4.42;100.00;96011.38;4985674;28;20046;-65
2024/01/05 03:54:31;;;;;;;3.08;1.08;;;;;;;4.38;100.00;96013.75;4985482;28;20049;-65
2024/01/05 03:56:57;;;;;;;4.82;1.10;;;;;;;4.33;100.00;96015.53;4985195;28;20502;-65
2024/01/05 03:59:24;;;;;;;1.50;0.70;;;;;;;4.26;100.00;96010.34;4984556;28;20034;-66
2024/01/05 04:01:51;;;;;;;5.65;1.15;;;;;;;4.20;100.00;96014.00;4986297;28;20034;-65
2024/01/05 04:04:17;;;;;;;4.25;1.35;;;;;;;4.23;100.00;96000.94;4984147;28;20430;-65
2024/01/05 04:06:45;;;;;;;4.80;1.05;;;;;;;4.25;100.00;95998.00;4986348;28;20038;-65
2024/01/05 04:09:12;;;;;;;2.05;0.85;;;;;;;4.28;100.00;96003.69;4983931;28;20041;-65
2024/01/05 04:11:39;;;;;;;4.18;0.77;;;;;;;4.33;100.00;95989.56;5001262;28;20051;-64
2024/01/05 04:14:06;;;;;;;4.68;1.17;;;;;;;4.39;100.00;95990.44;4986540;28;20181;-65
2024/01/05 04:16:33;;;;;;;2.55;0.70;;;;;;;4.38;100.00;95978.91;4985243;28;20041;-66
2024/01/05 04:19:01;;;;;;;4.70;1.05;;;;;;;4.38;100.00;95983.44;4985321;28;20045;-65
2024/01/05 04:21:28;;;;;;;1.42;0.73;;;;;;;4.39;100.00;95980.50;4984054;28;20346;-66
2024/01/05 04:23:57;;;;;;;5.22;1.10;;;;;;;4.48;100.00;95980.91;4985204;28;20046;-65
2024/01/05 04:26:25;;;;;;;4.63;1.00;;;;;;;4.48;100.00;95969.38;4966290;28;20042;-66
2024/01/05 04:28:51;;;;;;;3.72;0.75;;;;;;;4.40;100.00;95965.25;4969579;28;20133;-65
2024/01/05 04:31:18;;;;;;;3.75;0.82;;;;;;;4.43;100.00;95973.59;4983225;28;20034;-65
2024/01/05 04:33:45;;;;;;;6.03;1.13;;;;;;;4.49;100.00;95971.03;4987164;28;20058;-65
2024/01/05 04:36:15;;;;;;;1.65;0.90;;;;;;;4.53;100.00;95978.31;4988894;28;20097;-65
2024/01/05 04:38:42;;;;;;;4.05;1.20;;;;;;;4.62;100.00;95976.03;4987956;28;20235;-65
2024/01/05 04:41:10;;;;;;;5.25;1.10;;;;;;;4.72;100.00;95972.63;4987345;28;20045;-65
2024/01/05 04:43:36;;;;;;;6.30;1.38;;;;;;;4.61;100.00;95971.69;4988031;28;20046;-65
2024/01/05 04:46:05;;;;;;;2.88;1.08;;;;;;;4.50;100.00;95965.38;4980341;28;20054;-64
2024/01/05 04:48:31;;;;;;;3.55;1.00;;;;;;;4.46;100.00;95958.91;4981506;28;20035;-64
2024/01/05 04:50:59;;;;;;;2.10;0.80;;;;;;;4.36;100.00;95958.78;4988915;28;20076;-65
2024/01/05 04:53:26;;;;;;;6.40;1.25;;;;;;;4.31;100.00;95951.47;4982309;28;20050;-64
2024/01/05 04:55:52;;;;;;;2.92;0.80;;;;;;;4.29;100.00;95950.91;4979480;28;20042;-65
2024/01/05 04:58:19;;;;;;;7.25;1.20;;;;;;;4.32;100.00;95957.63;4985325;28;20136;-65
2024/01/05 05:00:46;;;;;;;3.15;0.80;;;;;;;4.33;100.00;95964.63;4987860;28;20060;-65
2024/01/05 05:03:13;;;;;;;6.90;0.90;;;;;;;4.39;100.00;95955.59;4983059;28;20437;-65
2024/01/05 05:05:40;;;;;;;3.75;0.80;;;;;;;4.41;100.00;95956.97;4989537;28;20588;-65
2024/01/05 05:08:10;;;;;;;6.07;1.60;;;;;;;4.45;100.00;95964.53;4989885;28;20042;-65
2024/01/05 05:10:37;;;;;;;3.58;1.02;;;;;;;4.48;100.00;95964.84;4983854;28;20042;-65
2024/01/05 05:13:04;;;;;;;4.18;1.13;;;;;;;4.47;100.00;95963.22;4988694;28;20042;-65
2024/01/05 05:15:31;;;;;;;3.45;0.95;;;;;;;4.54;100.00;95968.41;4985871;28;20142;-64
2024/01/05 05:17:57;;;;;;;4.18;0.98;;;;;;;4.55;100.00;95964.66;4983198;28;20744;-64
2024/01/05 05:20:24;;;;;;;4.80;0.95;;;;;;;4.60;100.00;95955.88;4985938;28;20034;-64
2024/01/05 05:22:51;;;;;;;2.50;0.98;;;;;;;4.58;100.00;95956.13;4987581;28;20066;-64
2024/01/05 05:25:17;;;;;;;3.88;1.20;;;;;;;4.58;100.00;95960.66;4985788;28;20046;-64
2024/01/05 05:27:44;;;;;;;3.88;1.08;;;;;;;4.60;100.00;95955.88;4987938;28;20053;-64
2024/01/05 05:30:10;;;;;;;6.18;0.93;;;;;;;4.74;100.00;95958.97;4987246;28;20122;-63
2024/01/05 05:32:37;;;;;;;3.70;1.42;;;;;;;4.69;100.00;95962.44;4985252;28;20281;-63
2024/01/05 05:35:05;;;;;;;3.08;0.82;;;;;;;4.62;100.00;95967.16;4986034;28;20056;-64
2024/01/05 05:37:31;;;;;;;3.08;0.95;;;;;;;4.67;100.00;95962.66;4987465;28;20034;-64
2024/01/05 05:39:58;;;;;;;4.05;0.95;;;;;;;4.64;100.00;95952.44;4986208;28;20050;-65
2024/01/05 05:42:25;;;;;;;3.45;0.93;;;;;;;4.59;100.00;95956.91;4984746;28;20425;-65
2024/01/05 05:44:51;;;;;;;4.10;1.10;;;;;;;4.53;100.00;95946.13;4986996;28;20042;-64
2024/01/05 05:47:18;;;;;;;4.22;0.90;;;;;;;4.47;100.00;95939.09;4985349;28;20497;-65
2024/01/05 05:49:44;;;;;;;4.10;1.30;;;;;;;4.44;100.00;95942.28;4987106;28;20058;-64
2024/01/05 05:52:11;;;;;;;2.30;0.90;;;;;;;4.40;100.00;95938.47;4987051;28;20057;-64
2024/01/05 05:54:38;;;;;;;2.58;0.80;;;;;;;4.45;100.00;95935.84;4986179;28;20050;-64
2024/01/05 05:57:07;;;;;;;3.40;0.70;;;;;;;4.46;100.00;95945.50;4987148;28;20498;-64
2024/01/05 05:59:34;;;;;;;4.63;1.00;;;;;;;4.38;100.00;95941.38;4980581;28;20053;-64
2024/01/05 06:02:01;;;;;;;2.78;1.20;;;;;;;4.41;100.00;95938.22;4987033;28;20050;-64
2024/01/05 06:04:27;;;;;;;3.35;0.95;;;;;;;4.45;100.00;95948.44;4984583;28;20050;-65
2024/01/05 06:06:54;;;;;;;1.77;0.80;;;;;;;4.49;100.00;95946.91;4986040;28;20434;-65
2024/01/05 06:09:21;;;;;;;3.38;1.00;;;;;;;4.43;100.00;95944.13;4983569;28;20140;-65
2024/01/05 06:11:47;;;;;;;5.13;0.85;;;;;;;4.40;100.00;95951.84;4984711;28;20041;-66
2024/01/05 06:14:14;;;;;;;4.68;1.23;;;;;;;4.42;100.00;95955.91;4985335;28;20263;-65
2024/01/05 06:16:40;;;;;;;3.35;1.05;;;;;;;4.53;100.00;95966.75;4984502;28;20034;-65
2024/01/05 06:19:09;;;;;;;4.40;1.00;;;;;;;4.45;100.00;95967.22;4985840;28;20421;-65
2024/01/05 06:21:36;;;;;;;1.65;0.55;;;;;;;4.45;100.00;95969.91;4962609;28;20737;-65
2024/01/05 06:24:03;;;;;;;3.33;0.77;;;;;;;4.42;100.00;95969.31;4970513;28;20070;-66
2024/01/05 06:26:31;;;;;;;2.60;1.20;;;;;;;4.34;100.00;95983.13;4985054;28;20498;-64
2024/01/05 06:28:57;;;;;;;7.65;1.67;;;;;;;4.35;100.00;95967.88;4985343;28;20112;-64
2024/01/05 06:31:24;;;;;;;4.10;1.10;;;;;;;4.27;100.00;95969.91;4977771;28;20073;-65
2024/01/05 06:33:51;;;;;;;5.72;1.08;;;;;;;4.26;100.00;95970.97;4985242;28;20117;-65
2024/01/05 06:36:18;;;;;;;3.35;0.90;;;;;;;4.33;100.00;95969.97;4983125;28;20046;-65
2024/01/05 06:38:44;;;;;;;4.13;1.00;;;;;;;4.31;100.00;95964.84;4984340;28;20039;-65
2024/01/05 06:41:11;;;;;;;1.77;0.90;;;;;;;4.33;100.00;95964.63;4983685;28;20053;-66
2024/01/05 06:43:37;;;;;;;5.63;1.10;;;;;;;4.33;100.00;95961.94;4983511;28;20073;-65
2024/01/05 06:46:04;;;;;;;3.00;0.93;;;;;;;4.32;100.00;95954.97;4984632;28;20042;-65
2024/01/05 06:48:31;;;;;;;3.22;1.00;;;;;;;4.27;100.00;95951.16;4980562;28;20680;-66
2024/01/05 06:50:59;;;;;;;5.85;1.25;;;;;;;4.21;100.00;95952.16;4984917;28;20128;-65
2024/01/05 06:53:28;;;;;;;2.85;0.93;;;;;;;4.18;100.00;95958.00;4982904;28;20069;-66
2024/01/05 06:55:55;;;;;;;5.55;1.15;;;;;;;4.15;100.00;95958.47;4978154;28;20046;-66
2024/01/05 06:58:23;;;;;;;5.35;1.33;;;;;;;4.14;100.00;95965.72;4981322;28;20053;-51
2024/01/05 07:00:50;;;;;;;2.78;0.95;;;;;;;4.16;100.00;95968.13;4983072;28;20038;-54
2024/01/05 07:03:17;;;;;;;4.45;1.42;;;;;;;4.19;100.00;95972.19;4979293;28;20034;-51
2024/01/05 07:05:43;;;;;;;2.10;0.85;;;;;;;4.19;100.00;95977.53;4981712;28;20093;-53
2024/01/05 07:08:10;;;;;;;3.83;0.90;;;;;;;4.16;100.00;95985.03;4983618;28;20042;-56
2024/01/05 07:10:36;;;;;;;3.92;1.00;;;;;;;4.22;100.00;95983.25;4983835;28;20124;-54
2024/01/05 07:13:06;;;;;;;4.13;0.90;;;;;;;4.27;100.00;95977.94;4984164;28;20118;-53
2024/01/05 07:15:34;;;;;;;5.00;1.00;;;;;;;4.23;100.00;95981.34;4983796;28;20129;-51
2024/01/05 07:18:01;;;;;;;4.35;1.00;;;;;;;4.19;100.00;95974.84;4983871;28;20050;-52
2024/01/05 07:20:28;;;;;;;2.58;1.30;;;;;;;4.11;100.00;95974.25;4980707;28;20054;-51
2024/01/05 07:22:54;;;;;;;4.82;0.93;;;;;;;4.05;100.00;95972.53;4982651;28;20146;-65
2024/01/05 07:25:21;;;;;;;4.63;1.02;;;;;;;4.00;100.00;95975.94;4979524;28;20406;-65
2024/01/05 07:27:47;;;;;;;5.45;1.20;;;;;;;3.95;100.00;95975.88;4981266;28;20038;-68
2024/01/05 07:30:14;;;;;;;4.85;1.48;;;;;;;3.85;100.00;95973.03;4982473;28;20569;-64
2024/01/05 07:32:40;;;;;;;4.90;1.33;;;;;;;3.76;100.00;95983.34;4966971;28;20584;-65
2024/01/05 07:35:07;;;;;;;4.65;1.17;;;;;;;3.69;100.00;95977.31;4948885;28;20152;-63
2024/01/05 07:37:34;;;;;;;2.85;0.85;;;;;;;3.64;100.00;95976.19;4977902;28;20046;-66
2024/01/05 07:40:00;;;;;;;5.32;1.40;;;;;;;3.57;100.00;95978.19;4981244;28;20153;-65
2024/01/05 07:42:27;;;;;;;3.50;1.63;;;;;;;3.48;100.00;95985.81;4980591;28;20054;-65
2024/01/05 07:44:57;;;;;;;5.10;1.60;;;;;;;3.42;100.00;95986.75;4976565;28;20050;-65
2024/01/05 07:47:24;;;;;;;5.15;1.23;;;;;;;3.27;100.00;95981.94;4980475;28;20042;-67
2024/01/05 07:49:50;;;;;;;4.18;1.55;;;;;;;3.18;100.00;95980.72;4978421;28;20053;-67
2024/01/05 07:52:17;;;;;;;3.28;1.02;;;;;;;3.17;100.00;95979.09;4981033;28;20058;-68
2024/01/05 07:54:43;;;;;;;2.35;0.90;;;;;;;3.05;100.00;95979.94;4981174;28;20133;-64
2024/01/05 07:57:10;;;;;;;5.13;1.65;;;;;;;3.03;100.00;95987.41;4982036;28;20049;-66
2024/01/05 07:59:37;;;;;;;3.58;1.30;;;;;;;3.05;100.00;95979.94;4979709;28;20042;-66
2024/01/05 08:02:03;;;;;;;3.20;1.13;;;;;;;3.10;100.00;95982.72;4980059;28;20074;-66
2024/01/05 08:04:30;;;;;;;4.25;1.10;;;;;;;3.17;100.00;95969.19;4980334;28;20052;-66
2024/01/05 08:06:56;;;;;;;3.67;1.30;;;;;;;3.34;100.00;95971.09;4978959;28;20130;-66
2024/01/05 08:09:23;;;;;;;7.70;1.85;;;;;;;3.52;100.00;95967.41;4981099;28;20042;-66
2024/01/05 08:11:49;;;;;;;5.70;1.75;;;;;;;3.65;100.00;95966.28;4982149;28;20200;-65
2024/01/05 08:14:16;;;;;;;5.10;1.60;;;;;;;3.69;100.00;95967.41;4979812;28;20047;-66
2024/01/05 08:16:43;;;;;;;5.07;1.80;;;;;;;3.76;100.00;95970.75;4953086;28;20046;-65
2024/01/05 08:19:10;;;;;;;4.05;1.27;;;;;;;3.88;100.00;95976.00;4971750;28;20051;-65
2024/01/05 08:21:37;;;;;;;4.20;1.50;;;;;;;3.94;100.00;95976.13;4980655;28;20121;-65
2024/01/05 08:24:04;;;;;;;6.57;2.15;;;;;;;4.01;100.00;95964.19;4982569;28;20042;-65
2024/01/05 08:26:30;;;;;;;5.13;1.77;;;;;;;4.08;100.00;95979.25;4979066;28;20054;-65
2024/01/05 08:28:57;;;;;;;6.32;2.00;;;;;;;4.12;100.00;95981.22;4981371;28;20109;-66
2024/01/05 08:31:23;;;;;;;3.95;1.70;;;;;;;4.18;100.00;95976.75;4980430;28;20058;-65
2024/01/05 08:33:50;;;;;;;4.55;1.40;;;;;;;4.24;100.00;95975.75;4981967;28;20049;-65
2024/01/05 08:36:17;;;;;;;3.10;1.30;;;;;;;4.33;100.00;95980.69;4981307;28;20042;-65
2024/01/05 08:38:45;;;;;;;4.28;1.50;;;;;;;4.45;100.00;95980.63;4978777;28;20683;-65
2024/01/05 08:41:11;;;;;;;4.28;1.60;;;;;;;4.60;100.00;95988.84;4982046;28;20042;-65
2024/01/05 08:43:41;;;;;;;4.85;1.50;;;;;;;4.66;100.00;95982.50;4980133;28;20042;-65
2024/01/05 08:46:07;;;;;;;7.60;1.80;;;;;;;4.75;100.00;95987.44;4981661;28;20042;-65
2024/01/05 08:48:34;;;;;;;6.38;1.83;;;;;;;4.83;100.00;95978.94;4980263;28;20061;-65
2024/01/05 08:51:01;;;;;;;6.25;1.90;;;;;;;4.85;100.00;95986.72;4980473;28;20038;-65
2024/01/05 08:53:28;;;;;;;4.90;1.75;;;;;;;4.85;100.00;95979.50;4981094;28;20518;-65
2024/01/05 08:55:54;;;;;;;3.40;1.48;;;;;;;4.91;100.00;95972.34;4979748;28;20046;-66
2024/01/05 08:58:21;;;;;;;4.95;1.55;;;;;;;4.93;100.00;95968.34;4981130;28;20057;-66
2024/01/05 09:00:47;;;;;;;3.03;1.30;;;;;;;5.05;100.00;95978.94;4981737;28;20125;-66
2024/01/05 09:03:14;;;;;;;5.82;1.67;;;;;;;5.14;100.00;95971.25;4979071;28;20074;-66
2024/01/05 09:05:41;;;;;;;3.80;1.50;;;;;;;5.24;100.00;95969.75;4980746;28;20122;-66
2024/01/05 09:08:07;;;;;;;7.07;1.58;;;;;;;5.26;100.00;95968.44;4975697;28;20498;-66
2024/01/05 09:10:34;;;;;;;4.32;1.42;;;;;;;5.26;100.00;95979.16;4980155;28;20050;-66
2024/01/05 09:13:00;;;;;;;2.25;1.17;;;;;;;5.25;100.00;95976.72;4980514;28;20049;-65
2024/01/05 09:15:27;;;;;;;3.40;1.40;;;;;;;5.20;100.00;95970.25;4976888;28;20053;-65
2024/01/05 09:17:54;;;;;;;3.95;1.30;;;;;;;5.15;100.00;95980.94;4982737;28;20420;-68
2024/01/05 09:20:21;;;;;;;4.70;1.20;;;;;;;5.17;100.00;95981.47;4967519;28;20050;-66
2024/01/05 09:22:47;;;;;;;4.78;1.52;;;;;;;5.26;100.00;95973.78;4958015;28;21412;-65
2024/01/05 09:25:14;;;;;;;5.55;1.67;;;;;;;5.39;100.00;95979.84;4984968;28;20053;-66
2024/01/05 09:27:40;;;;;;;4.38;1.70;;;;;;;5.49;100.00;95987.97;4983322;28;20046;-66
2024/01/05 09:30:07;;;;;;;4.45;1.60;;;;;;;5.58;100.00;95993.72;4985144;28;20070;-66
2024/01/05 09:32:35;;;;;;;4.32;1.67;;;;;;;5.65;100.00;95991.63;4984371;28;20486;-66
2024/01/05 09:35:02;;;;;;;4.45;1.45;;;;;;;5.80;100.00;95990.16;4984504;28;20042;-66
2024/01/05 09:37:28;;;;;;;6.60;1.45;;;;;;;5.91;100.00;95993.72;4983660;28;20046;-65
2024/01/05 09:39:55;;;;;;;3.88;1.65;;;;;;;5.96;100.00;95996.44;4983399;28;20046;-66
2024/01/05 09:42:22;;;;;;;7.75;1.42;;;;;;;6.06;100.00;96003.81;4983908;28;20104;-66
2024/01/05 09:44:51;;;;;;;3.17;1.33;;;;;;;6.11;100.00;96007.38;4985289;28;20120;-65
2024/01/05 09:47:19;;;;;;;4.68;1.20;;;;;;;6.14;100.00;96005.22;4983609;28;20510;-65
2024/01/05 09:49:49;;;;;;;4.30;1.40;;;;;;;6.12;100.00;96010.88;4981812;28;20042;-66
2024/01/05 09:52:19;;;;;;;5.15;1.40;;;;;;;6.12;100.00;96013.56;4962949;28;20051;-66
2024/01/05 09:54:46;;;;;;;3.60;1.02;;;;;;;6.19;100.00;95999.91;4977766;28;20626;-65
2024/01/05 09:57:17;;;;;;;1.77;0.80;;;;;;;6.22;100.00;95999.38;4983652;28;20068;-65
2024/01/05 09:59:46;;;;;;;4.45;1.20;;;;;;;6.26;100.00;96013.13;4978694;28;20038;-65
2024/01/05 10:02:31;;;;;;;3.70;1.27;;;;;;;6.32;100.00;96004.00;4983448;28;20049;-66
2024/01/05 10:05:00;;;;;;;3.88;1.13;;;;;;;6.40;100.00;96000.03;4980559;28;20038;-65
2024/01/05 10:07:26;;;;;;;3.38;1.20;;;;;;;6.51;100.00;96009.78;4982550;28;20043;-65
2024/01/05 10:09:54;;;;;;;4.63;1.50;;;;;;;6.61;100.00;95998.28;4983711;28;20038;-66
2024/01/05 10:12:21;;;;;;;4.97;1.30;;;;;;;6.66;100.00;95997.50;4951734;28;20138;-66
2024/01/05 10:14:48;;;;;;;3.63;1.40;;;;;;;6.72;100.00;95993.78;4978814;28;20046;-66
2024/01/05 10:17:17;;;;;;;6.00;1.50;;;;;;;6.76;100.00;96000.25;4983460;28;20056;-66
2024/01/05 10:19:44;;;;;;;7.20;1.80;;;;;;;6.84;100.00;96002.44;4982966;28;20054;-66
2024/01/05 10:22:12;;;;;;;2.63;1.00;;;;;;;6.98;100.00;95991.19;4984445;28;20050;-66
2024/01/05 10:24:40;;;;;;;4.25;1.20;;;;;;;7.05;100.00;95990.94;4982791;28;21324;-66
2024/01/05 10:27:11;;;;;;;5.13;0.93;;;;;;;7.14;100.00;95997.44;4982523;28;20081;-66
2024/01/05 10:29:42;;;;;;;4.97;1.40;;;;;;;7.25;100.00;95999.09;4979561;28;20050;-66
2024/01/05 10:32:10;;;;;;;2.72;0.93;;;;;;;7.28;100.00;96005.84;4982486;28;20050;-66
2024/01/05 10:34:38;;;;;;;3.80;1.27;;;;;;;7.25;100.00;96006.34;4983212;28;20577;-66
2024/01/05 10:37:06;;;;;;;2.80;1.10;;;;;;;7.22;100.00;95993.44;4980987;28;20392;-65
2024/01/05 10:39:32;;;;;;;4.70;1.15;;;;;;;7.32;100.00;95993.47;4982051;28;20042;-65
2024/01/05 10:42:14;;;;;;;4.53;1.30;;;;;;;7.20;100.00;95991.00;4980784;28;20046;-66
2024/01/05 10:44:42;;;;;;;;;;;;;;;7.12;100.00;95986.94;4982296;28;20113;-66
2024/01/05 10:47:09;;;;;;;4.43;1.30;;;;;;;7.21;100.00;95986.44;4980139;28;20024;-66
2024/01/05 10:49:36;;;;;;;6.82;1.40;;;;;;;7.29;100.00;95984.03;4981731;28;20054;-65
2024/01/05 10:52:03;;;;;;;7.45;2.47;;;;;;;7.32;100.00;95980.00;4983675;28;20653;-66
2024/01/05 10:54:30;;;;;;;4.00;1.27;;;;;;;7.57;100.00;95981.13;4980259;28;20268;-66
2024/01/05 10:56:58;;;;;;;5.32;1.70;;;;;;;7.58;100.00;95982.75;4983164;28;20045;-66
2024/01/05 10:59:24;;;;;;;6.30;1.42;;;;;;;7.60;100.00;95983.31;4982204;28;20054;-66
2024/01/05 11:01:51;;;;;;;5.78;1.50;;;;;;;7.64;100.00;95983.56;4982446;28;20573;-66
2024/01/05 11:04:21;;;;;;;11.30;5.47;;;;;;;7.52;100.00;95983.84;4983192;28;20044;-66
2024/01/05 11:06:49;;;;;;;4.10;1.45;;;;;;;7.52;100.00;95976.53;4980478;28;20049;-65
2024/01/05 11:09:44;;;;;;;6.50;2.20;;;;;;;7.64;100.00;95970.94;4981851;28;20050;-66
2024/01/05 11:12:43;;;;;;;4.07;1.40;;;;;;;7.75;100.00;95966.34;4982608;28;20136;-65
2024/01/05 11:15:32;;;;;;;4.30;1.52;;;;;;;7.89;100.00;95965.81;4976638;28;20062;-66
2024/01/05 11:18:13;;;;;;;7.40;2.17;;;;;;;7.88;100.00;95972.25;4981815;28;20383;-66
2024/01/05 11:21:02;;;;;;;6.47;1.95;;;;;;;7.91;100.00;95969.03;4981526;28;20053;-66
2024/01/05 11:23:31;;;;;;;6.45;2.28;;;;;;;7.86;100.00;95974.44;4973765;28;20046;-66
2024/01/05 11:25:58;;;;;;;4.22;1.48;;;;;;;7.86;100.00;95972.56;4982735;28;20056;-66
2024/01/05 11:28:38;;;;;;;5.13;1.48;;;;;;;7.81;100.00;95967.97;4981983;28;20050;-66
2024/01/05 11:31:05;;;;;;;5.65;1.77;;;;;;;7.73;100.00;95973.88;4981261;28;20687;-66
2024/01/05 11:33:48;;;;;;;7.72;2.90;;;;;;;7.62;100.00;95964.16;4981990;28;20046;-65
2024/01/05 11:36:51;;;;;;;8.45;2.55;;;;;;;7.54;100.00;95962.81;4978644;28;20042;-66